createdAt,value
2022-08-07T00:00:26.720Z,13.80
2022-08-07T00:03:06.814Z,14.30
2022-08-07T00:05:37.792Z,14.50
2022-08-07T00:08:07.895Z,12.70
2022-08-07T00:10:48.377Z,12.50
2022-08-07T00:13:26.797Z,15.60
2022-08-07T00:15:55.692Z,13.10
2022-08-07T00:18:29.147Z,13.20
2022-08-07T00:21:01.949Z,15.20
2022-08-07T00:23:33.446Z,13.70
2022-08-07T00:26:12.801Z,17.20
2022-08-07T00:28:45.912Z,13.60
2022-08-07T00:31:37.330Z,13.00
2022-08-07T00:34:08.945Z,14.20
2022-08-07T00:36:43.258Z,14.20
2022-08-07T00:39:16.529Z,14.20
2022-08-07T00:42:02.211Z,14.80
2022-08-07T00:44:34.763Z,14.50
2022-08-07T00:47:06.558Z,14.60
2022-08-07T00:50:19.005Z,14.40
2022-08-07T00:52:33.331Z,19.80
2022-08-07T00:55:10.547Z,17.30
2022-08-07T00:57:55.295Z,15.80
2022-08-07T01:00:25.435Z,14.50
2022-08-07T01:02:54.657Z,14.40
2022-08-07T01:05:24.634Z,15.20
2022-08-07T01:07:53.055Z,16.90
2022-08-07T01:10:23.772Z,13.90
2022-08-07T01:12:54.586Z,14.20
2022-08-07T01:16:01.258Z,15.40
2022-08-07T01:18:17.054Z,15.70
2022-08-07T01:21:10.285Z,17.60
2022-08-07T01:23:54.083Z,13.90
2022-08-07T01:26:26.203Z,16.10
2022-08-07T01:28:55.686Z,14.90
2022-08-07T01:31:42.506Z,14.20
2022-08-07T01:34:14.488Z,14.60
2022-08-07T01:36:52.917Z,13.60
2022-08-07T01:39:41.399Z,14.20
2022-08-07T01:42:57.432Z,14.00
2022-08-07T01:45:36.446Z,15.10
2022-08-07T01:48:20.253Z,16.10
2022-08-07T01:52:01.071Z,15.20
2022-08-07T01:54:11.802Z,16.50
2022-08-07T01:56:53.144Z,14.60
2022-08-07T01:59:23.433Z,13.90
2022-08-07T02:02:06.178Z,16.10
2022-08-07T02:04:52.628Z,14.40
2022-08-07T02:07:36.135Z,14.70
2022-08-07T02:10:25.220Z,14.90
2022-08-07T02:12:59.668Z,15.70
2022-08-07T02:15:36.161Z,14.50
2022-08-07T02:18:06.965Z,15.00
2022-08-07T02:20:37.439Z,18.30
2022-08-07T02:23:07.792Z,16.60
2022-08-07T02:26:31.730Z,14.40
2022-08-07T02:28:31.500Z,16.60
2022-08-07T02:31:10.254Z,15.80
2022-08-07T02:34:03.931Z,18.50
2022-08-07T02:36:42.663Z,14.80
2022-08-07T02:42:10.213Z,15.70
2022-08-07T02:44:48.963Z,14.80
2022-08-07T02:47:23.463Z,14.30
2022-08-07T02:49:57.877Z,16.40
2022-08-07T02:52:48.691Z,15.20
2022-08-07T02:55:28.383Z,15.70
2022-08-07T02:58:21.604Z,14.60
2022-08-07T03:00:55.142Z,14.80
2022-08-07T03:03:29.613Z,15.70
2022-08-07T03:06:26.279Z,17.00
2022-08-07T03:09:05.063Z,15.20
2022-08-07T03:11:38.665Z,15.10
2022-08-07T03:14:09.305Z,18.20
2022-08-07T03:16:40.610Z,14.90
2022-08-07T03:19:11.002Z,15.20
2022-08-07T03:21:50.346Z,14.20
2022-08-07T03:24:27.432Z,16.30
2022-08-07T03:27:02.104Z,15.40
2022-08-07T03:29:46.264Z,15.80
2022-08-07T03:32:26.073Z,15.90
2022-08-07T03:35:17.711Z,16.00
2022-08-07T03:37:55.230Z,18.30
2022-08-07T03:40:36.153Z,15.10
2022-08-07T03:43:09.991Z,16.70
2022-08-07T03:45:47.927Z,17.10
2022-08-07T03:48:19.211Z,15.80
2022-08-07T03:50:56.200Z,15.80
2022-08-07T03:54:33.119Z,14.40
2022-08-07T03:56:33.328Z,18.20
2022-08-07T03:59:09.214Z,16.20
2022-08-07T04:01:46.068Z,17.00
2022-08-07T04:04:17.930Z,15.50
2022-08-07T04:06:50.964Z,14.60
2022-08-07T04:09:23.105Z,13.70
2022-08-07T04:12:27.890Z,17.70
2022-08-07T04:14:47.719Z,17.60
2022-08-07T04:17:20.790Z,14.20
2022-08-07T04:19:54.392Z,14.20
2022-08-07T04:22:27.411Z,14.30
2022-08-07T04:25:00.959Z,14.00
2022-08-07T04:27:38.135Z,14.70
2022-08-07T04:30:21.650Z,13.80
2022-08-07T04:33:15.400Z,18.30
2022-08-07T04:35:50.569Z,15.10
2022-08-07T04:38:21.016Z,13.40
2022-08-07T04:40:52.231Z,13.30
2022-08-07T04:44:09.706Z,14.90
2022-08-07T04:47:09.116Z,14.90
2022-08-07T04:50:03.875Z,12.50
2022-08-07T04:52:52.466Z,12.40
2022-08-07T04:58:10.969Z,13.10
2022-08-07T05:00:09.434Z,13.70
2022-08-07T05:02:39.750Z,14.80
2022-08-07T05:05:53.057Z,13.50
2022-08-07T05:08:59.960Z,11.60
2022-08-07T05:11:58.667Z,13.20
2022-08-07T05:15:23.109Z,11.90
2022-08-07T05:18:09.051Z,12.50
2022-08-07T05:20:54.240Z,12.00
2022-08-07T05:23:30.086Z,14.10
2022-08-07T05:26:13.050Z,13.30
2022-08-07T05:28:50.285Z,15.10
2022-08-07T05:31:35.353Z,11.40
2022-08-07T05:34:12.044Z,12.30
2022-08-07T05:36:44.891Z,13.50
2022-08-07T05:40:13.746Z,12.90
2022-08-07T05:42:33.613Z,11.30
2022-08-07T05:45:26.343Z,13.60
2022-08-07T05:48:01.132Z,10.90
2022-08-07T05:50:34.415Z,11.90
2022-08-07T05:53:04.150Z,12.10
2022-08-07T05:56:02.474Z,13.30
2022-08-07T05:58:36.240Z,12.80
2022-08-07T06:01:10.492Z,11.20
2022-08-07T06:03:53.573Z,16.20
2022-08-07T06:06:29.915Z,10.10
2022-08-07T06:09:04.431Z,11.40
2022-08-07T06:11:34.845Z,9.60
2022-08-07T06:14:13.138Z,13.10
2022-08-07T06:16:56.412Z,11.40
2022-08-07T06:19:58.314Z,10.90
2022-08-07T06:22:27.135Z,12.00
2022-08-07T06:25:14.627Z,9.80
2022-08-07T06:28:00.498Z,10.60
2022-08-07T06:30:35.770Z,9.30
2022-08-07T06:33:16.296Z,10.20
2022-08-07T06:36:13.067Z,10.50
2022-08-07T06:38:39.495Z,11.00
2022-08-07T06:42:03.046Z,15.10
2022-08-07T06:44:22.649Z,8.10
2022-08-07T06:46:53.366Z,10.70
2022-08-07T06:49:28.623Z,7.50
2022-08-07T06:52:07.322Z,10.10
2022-08-07T06:55:33.376Z,8.40
2022-08-07T06:57:48.341Z,8.70
2022-08-07T07:00:20.774Z,10.40
2022-08-07T07:02:54.403Z,9.90
2022-08-07T07:06:03.226Z,10.20
2022-08-07T07:08:18.507Z,11.30
2022-08-07T07:10:57.164Z,7.60
2022-08-07T07:13:58.548Z,8.50
2022-08-07T07:16:33.530Z,8.70
2022-08-07T07:19:11.525Z,7.50
2022-08-07T07:22:12.104Z,10.60
2022-08-07T07:24:56.577Z,8.40
2022-08-07T07:27:35.571Z,8.50
2022-08-07T07:30:32.708Z,8.30
2022-08-07T07:33:08.008Z,9.70
2022-08-07T07:35:44.095Z,7.10
2022-08-07T07:38:26.328Z,7.90
2022-08-07T07:41:02.074Z,8.10
2022-08-07T07:43:48.075Z,10.60
2022-08-07T07:46:37.611Z,8.70
2022-08-07T07:50:36.177Z,9.90
2022-08-07T07:52:07.353Z,7.40
2022-08-07T07:54:38.313Z,10.10
2022-08-07T07:57:11.543Z,8.10
2022-08-07T07:59:52.091Z,7.70
2022-08-07T08:02:35.506Z,13.10
2022-08-07T08:05:14.136Z,8.90
2022-08-07T08:07:59.717Z,7.60
2022-08-07T08:10:38.026Z,7.50
2022-08-07T08:13:10.544Z,8.00
2022-08-07T08:15:59.027Z,8.60
2022-08-07T08:18:30.277Z,6.30
2022-08-07T08:21:01.799Z,7.40
2022-08-07T08:23:51.772Z,8.90
2022-08-07T08:26:39.901Z,7.30
2022-08-07T08:29:09.521Z,9.40
2022-08-07T08:31:58.654Z,7.70
2022-08-07T08:34:38.339Z,7.00
2022-08-07T08:38:00.789Z,6.90
2022-08-07T08:39:59.183Z,6.60
2022-08-07T08:42:37.275Z,6.40
2022-08-07T08:45:26.892Z,6.70
2022-08-07T08:48:28.531Z,7.50
2022-08-07T08:51:14.305Z,7.50
2022-08-07T08:54:04.866Z,7.80
2022-08-07T08:56:39.273Z,6.40
2022-08-07T08:59:42.196Z,7.30
2022-08-07T09:02:36.386Z,8.80
2022-08-07T09:05:38.090Z,7.70
2022-08-07T09:08:28.531Z,5.80
2022-08-07T09:11:43.727Z,10.40
2022-08-07T09:14:58.748Z,5.60
2022-08-07T09:18:07.153Z,7.10
2022-08-07T09:21:00.782Z,13.80
2022-08-07T09:24:31.221Z,7.60
2022-08-07T09:26:38.558Z,6.30
2022-08-07T09:30:03.369Z,7.10
2022-08-07T09:32:50.202Z,6.00
2022-08-07T09:36:02.989Z,6.30
2022-08-07T09:38:25.754Z,8.20
2022-08-07T09:41:15.743Z,6.80
2022-08-07T09:44:05.854Z,5.90
2022-08-07T09:47:50.138Z,6.50
2022-08-07T09:50:33.784Z,6.30
2022-08-07T09:53:06.010Z,7.00
2022-08-07T09:56:19.765Z,5.70
2022-08-07T09:59:21.750Z,7.90
2022-08-07T10:03:08.553Z,5.30
2022-08-07T10:06:02.876Z,4.60
2022-08-07T10:08:35.874Z,6.00
2022-08-07T10:12:01.695Z,7.10
2022-08-07T10:14:30.347Z,9.10
2022-08-07T10:18:01.704Z,7.40
2022-08-07T10:20:58.059Z,4.90
2022-08-07T10:24:06.263Z,5.20
2022-08-07T10:26:53.182Z,6.30
2022-08-07T10:29:40.468Z,6.70
2022-08-07T10:32:52.585Z,5.40
2022-08-07T10:35:55.347Z,6.50
2022-08-07T10:38:41.181Z,5.40
2022-08-07T10:41:47.507Z,6.20
2022-08-07T10:44:50.081Z,6.60
2022-08-07T10:47:53.588Z,6.20
2022-08-07T10:50:31.852Z,6.00
2022-08-07T10:53:25.185Z,8.80
2022-08-07T10:56:30.936Z,7.10
2022-08-07T10:59:37.793Z,6.40
2022-08-07T11:02:33.038Z,6.30
2022-08-07T11:05:20.016Z,6.50
2022-08-07T11:08:17.913Z,5.40
2022-08-07T11:10:59.668Z,5.60
2022-08-07T11:14:43.772Z,6.00
2022-08-07T11:16:42.048Z,6.30
2022-08-07T11:19:14.557Z,7.20
2022-08-07T11:22:18.949Z,6.30
2022-08-07T11:25:09.798Z,6.10
2022-08-07T11:28:09.039Z,6.80
2022-08-07T11:31:02.066Z,6.50
2022-08-07T11:33:53.526Z,5.70
2022-08-07T11:36:35.844Z,7.10
2022-08-07T11:39:07.293Z,7.00
2022-08-07T11:42:01.780Z,7.20
2022-08-07T11:44:52.548Z,7.20
2022-08-07T11:47:53.585Z,7.70
2022-08-07T11:50:57.463Z,7.40
2022-08-07T11:54:00.594Z,6.20
2022-08-07T11:56:53.107Z,6.20
2022-08-07T12:00:11.878Z,7.50
2022-08-07T12:03:00.495Z,6.60
2022-08-07T12:05:59.454Z,7.70
2022-08-07T12:08:37.094Z,5.80
2022-08-07T12:11:21.038Z,8.20
2022-08-07T12:14:11.417Z,6.70
2022-08-07T12:16:53.933Z,5.90
2022-08-07T12:20:04.932Z,7.90
2022-08-07T12:22:58.618Z,7.40
2022-08-07T12:26:05.323Z,7.20
2022-08-07T12:28:54.307Z,9.40
2022-08-07T12:32:03.956Z,7.60
2022-08-07T12:34:39.651Z,7.60
2022-08-07T12:37:16.875Z,7.40
2022-08-07T12:39:59.147Z,7.40
2022-08-07T12:42:32.158Z,8.00
2022-08-07T12:45:15.895Z,7.00
2022-08-07T12:47:49.417Z,9.10
2022-08-07T12:50:40.229Z,6.40
2022-08-07T12:53:18.757Z,7.30
2022-08-07T12:56:02.606Z,8.70
2022-08-07T12:58:39.669Z,8.40
2022-08-07T13:01:58.367Z,8.10
2022-08-07T13:05:10.348Z,8.20
2022-08-07T13:08:18.561Z,7.60
2022-08-07T13:11:01.371Z,9.30
2022-08-07T13:13:57.319Z,6.80
2022-08-07T13:16:47.007Z,6.80
2022-08-07T13:19:50.464Z,7.60
2022-08-07T13:22:59.903Z,7.40
2022-08-07T13:25:54.202Z,6.80
2022-08-07T13:28:37.855Z,6.70
2022-08-07T13:31:13.198Z,7.50
2022-08-07T13:34:31.026Z,9.40
2022-08-07T13:36:51.402Z,8.70
2022-08-07T13:39:49.440Z,9.00
2022-08-07T13:42:24.914Z,6.90
2022-08-07T13:45:20.634Z,6.80
2022-08-07T13:48:05.335Z,8.00
2022-08-07T13:51:00.358Z,8.60
2022-08-07T13:53:59.233Z,7.20
2022-08-07T13:56:36.367Z,7.60
2022-08-07T13:59:19.913Z,8.00
2022-08-07T14:02:03.875Z,6.40
2022-08-07T14:04:48.879Z,7.00
2022-08-07T14:07:26.462Z,10.40
2022-08-07T14:10:16.302Z,7.80
2022-08-07T14:12:58.724Z,6.70
2022-08-07T14:15:38.403Z,9.10
2022-08-07T14:18:29.910Z,8.50
2022-08-07T14:21:20.976Z,9.00
2022-08-07T14:24:12.777Z,8.40
2022-08-07T14:26:56.705Z,9.30
2022-08-07T14:30:07.854Z,9.00
2022-08-07T14:32:26.946Z,7.30
2022-08-07T14:34:56.203Z,8.50
2022-08-07T14:37:36.294Z,9.00
2022-08-07T14:40:26.575Z,9.50
2022-08-07T14:43:57.357Z,10.20
2022-08-07T14:46:04.682Z,9.30
2022-08-07T14:48:37.217Z,10.00
2022-08-07T14:51:15.602Z,9.80
2022-08-07T14:54:05.555Z,10.40
2022-08-07T14:56:40.489Z,8.70
2022-08-07T14:59:13.821Z,7.10
2022-08-07T15:02:34.022Z,7.00
2022-08-07T15:05:04.955Z,9.90
2022-08-07T15:07:51.776Z,12.70
2022-08-07T15:10:26.113Z,11.70
2022-08-07T15:13:01.314Z,7.30
2022-08-07T15:15:56.726Z,9.30
2022-08-07T15:18:47.622Z,11.00
2022-08-07T15:25:13.406Z,11.50
2022-08-07T15:27:19.458Z,10.10
2022-08-07T15:30:06.526Z,8.00
2022-08-07T15:42:42.596Z,7.80
2022-08-07T15:44:15.370Z,8.40
2022-08-07T15:52:31.462Z,8.00
2022-08-07T15:55:08.841Z,9.00
2022-08-07T15:57:49.012Z,10.10
2022-08-07T16:00:30.987Z,10.50
2022-08-07T16:03:21.624Z,7.30
2022-08-07T16:06:02.425Z,6.60
2022-08-07T16:08:38.647Z,8.20
2022-08-07T16:11:26.546Z,8.60
2022-08-07T16:14:45.319Z,10.20
2022-08-07T16:18:02.420Z,12.00
2022-08-07T16:20:55.173Z,8.40
2022-08-07T16:23:53.923Z,9.10
2022-08-07T16:26:30.528Z,11.30
2022-08-07T16:30:05.747Z,9.30
2022-08-07T16:32:35.356Z,12.60
2022-08-07T16:35:51.487Z,8.10
2022-08-07T16:38:09.441Z,9.40
2022-08-07T16:41:13.242Z,7.90
2022-08-07T16:44:06.281Z,7.10
2022-08-07T16:47:08.766Z,9.10
2022-08-07T16:50:20.280Z,12.40
2022-08-07T16:52:52.645Z,12.90
2022-08-07T16:55:47.259Z,9.10
2022-08-07T16:59:02.284Z,10.50
2022-08-07T17:01:27.588Z,12.00
2022-08-07T17:04:50.918Z,13.40
2022-08-07T17:07:51.989Z,10.40
2022-08-07T17:10:39.696Z,11.70
2022-08-07T17:13:16.685Z,10.90
2022-08-07T17:16:05.952Z,10.10
2022-08-07T17:19:23.989Z,10.30
2022-08-07T17:22:36.468Z,9.70
2022-08-07T17:25:47.325Z,12.00
2022-08-07T17:28:22.326Z,9.60
2022-08-07T17:31:00.956Z,9.70
2022-08-07T17:34:34.046Z,9.00
2022-08-07T17:38:08.858Z,8.90
2022-08-07T17:40:30.505Z,7.90
2022-08-07T17:43:18.412Z,8.90
2022-08-07T17:46:09.022Z,11.00
2022-08-07T17:48:46.701Z,13.60
2022-08-07T17:51:49.438Z,10.10
2022-08-07T17:54:40.052Z,8.30
2022-08-07T17:57:58.838Z,14.10
2022-08-07T18:00:34.190Z,11.50
2022-08-07T18:04:04.413Z,8.90
2022-08-07T18:06:43.173Z,8.20
2022-08-07T18:10:06.794Z,9.10
2022-08-07T18:12:30.189Z,13.00
2022-08-07T18:15:12.085Z,10.90
2022-08-07T18:18:47.642Z,10.90
2022-08-07T18:21:30.655Z,9.70
2022-08-07T18:24:07.688Z,9.90
2022-08-07T18:26:40.878Z,10.10
2022-08-07T18:30:05.424Z,14.20
2022-08-07T18:32:21.835Z,12.30
2022-08-07T18:35:15.807Z,10.50
2022-08-07T18:38:56.136Z,13.00
2022-08-07T18:41:09.122Z,11.90
2022-08-07T18:44:09.412Z,9.80
2022-08-07T18:46:51.442Z,9.60
2022-08-07T18:50:33.022Z,9.10
2022-08-07T18:52:37.841Z,8.80
2022-08-07T18:55:55.940Z,9.00
2022-08-07T18:58:51.273Z,12.00
2022-08-07T19:02:32.302Z,10.00
2022-08-07T19:05:14.855Z,9.10
2022-08-07T19:08:13.294Z,8.90
2022-08-07T19:10:51.533Z,10.10
2022-08-07T19:13:27.853Z,9.40
2022-08-07T19:17:00.386Z,13.50
2022-08-07T19:19:31.693Z,10.80
2022-08-07T19:22:11.199Z,11.10
2022-08-07T19:24:48.676Z,11.40
2022-08-07T19:28:56.697Z,11.20
2022-08-07T19:31:05.189Z,10.20
2022-08-07T19:33:12.926Z,11.40
2022-08-07T19:35:51.905Z,12.50
2022-08-07T19:38:21.777Z,10.40
2022-08-07T19:40:56.205Z,9.90
2022-08-07T19:43:49.247Z,9.20
2022-08-07T19:46:26.316Z,11.40
2022-08-07T19:49:05.406Z,9.80
2022-08-07T19:51:50.946Z,9.90
2022-08-07T19:54:34.191Z,10.10
2022-08-07T19:58:01.099Z,10.30
2022-08-07T20:00:12.801Z,10.20
2022-08-07T20:03:02.961Z,10.70
2022-08-07T20:05:59.911Z,10.70
2022-08-07T20:08:27.964Z,10.30
2022-08-07T20:11:10.137Z,9.00
2022-08-07T20:13:50.564Z,9.20
2022-08-07T20:16:36.463Z,14.30
2022-08-07T20:19:10.535Z,11.20
2022-08-07T20:24:24.157Z,9.90
2022-08-07T20:27:02.765Z,10.60
2022-08-07T20:29:49.071Z,10.90
2022-08-07T20:32:38.958Z,9.40
2022-08-07T20:35:15.856Z,9.50
2022-08-07T20:37:57.694Z,10.10
2022-08-07T20:40:37.606Z,11.30
2022-08-07T20:43:14.647Z,12.90
2022-08-07T20:46:25.873Z,9.00
2022-08-07T20:49:54.194Z,10.30
2022-08-07T20:51:35.907Z,8.80
2022-08-07T20:54:12.071Z,10.80
2022-08-07T20:56:45.907Z,10.30
2022-08-07T21:00:04.162Z,12.60
2022-08-07T21:02:35.420Z,9.80
2022-08-07T21:05:16.758Z,10.80
2022-08-07T21:07:50.065Z,11.00
2022-08-07T21:10:29.506Z,9.10
2022-08-07T21:13:05.058Z,11.60
2022-08-07T21:15:58.239Z,8.60
2022-08-07T21:18:33.457Z,8.40
2022-08-07T21:21:04.253Z,8.10
2022-08-07T21:24:01.108Z,9.30
2022-08-07T21:26:42.839Z,8.70
2022-08-07T21:29:30.628Z,8.00
2022-08-07T21:32:47.199Z,7.80
2022-08-07T21:35:11.213Z,10.40
2022-08-07T21:37:57.952Z,10.50
2022-08-07T21:40:38.396Z,8.90
2022-08-07T21:43:55.452Z,8.30
2022-08-07T21:46:43.751Z,8.70
2022-08-07T21:49:21.289Z,7.20
2022-08-07T21:52:11.828Z,8.10
2022-08-07T21:54:56.761Z,5.90
2022-08-07T21:57:44.776Z,7.20
2022-08-07T22:00:25.587Z,7.10
2022-08-07T22:03:31.063Z,7.30
2022-08-07T22:06:30.106Z,8.20
2022-08-07T22:09:10.994Z,8.30
2022-08-07T22:12:05.223Z,8.60
2022-08-07T22:14:44.078Z,8.50
2022-08-07T22:17:53.879Z,9.70
2022-08-07T22:20:30.551Z,9.80
2022-08-07T22:23:14.914Z,9.80
2022-08-07T22:26:02.140Z,9.50
2022-08-07T22:28:40.735Z,10.10
2022-08-07T22:31:59.106Z,9.20
2022-08-07T22:34:15.574Z,10.60
2022-08-07T22:38:02.976Z,9.50
2022-08-07T22:40:38.552Z,10.60
2022-08-07T22:43:10.909Z,11.90
2022-08-07T22:47:02.696Z,12.50
2022-08-07T22:49:37.792Z,13.40
2022-08-07T22:53:03.198Z,9.40
2022-08-07T22:55:43.613Z,8.10
2022-08-07T22:58:28.322Z,10.50
2022-08-07T23:01:06.300Z,7.70
2022-08-07T23:04:08.632Z,8.30
2022-08-07T23:06:42.901Z,9.30
2022-08-07T23:10:04.610Z,8.50
2022-08-07T23:12:34.658Z,10.50
2022-08-07T23:16:04.547Z,9.20
2022-08-07T23:18:32.560Z,10.60
2022-08-07T23:21:03.794Z,8.70
2022-08-07T23:24:11.687Z,15.70
2022-08-07T23:27:07.864Z,8.30
2022-08-07T23:30:37.643Z,9.70
2022-08-07T23:34:35.253Z,10.20
2022-08-07T23:36:02.814Z,8.50
2022-08-07T23:39:02.046Z,10.30
2022-08-07T23:42:04.140Z,9.20
2022-08-07T23:44:55.212Z,8.40
2022-08-07T23:48:01.970Z,8.20
2022-08-07T23:50:39.439Z,9.10
2022-08-07T23:53:51.361Z,9.80
2022-08-07T23:56:38.883Z,10.00
